sensor_id;sensor_type;location;lat;lon;timestamp;temperature;humidity
15386;DHT22;7791;47.246;9.648;2022-08-21T00:00:24;15.90;99.90
15386;DHT22;7791;47.246;9.648;2022-08-21T00:02:53;15.90;99.90
15386;DHT22;7791;47.246;9.648;2022-08-21T00:05:30;15.80;99.90
15386;DHT22;7791;47.246;9.648;2022-08-21T00:07:58;15.80;99.90
15386;DHT22;7791;47.246;9.648;2022-08-21T00:10:25;15.70;99.90
15386;DHT22;7791;47.246;9.648;2022-08-21T00:12:51;15.70;99.90
15386;DHT22;7791;47.246;9.648;2022-08-21T00:15:20;15.50;99.90
15386;DHT22;7791;47.246;9.648;2022-08-21T00:17:46;15.60;99.90
15386;DHT22;7791;47.246;9.648;2022-08-21T00:20:14;15.50;99.90
15386;DHT22;7791;47.246;9.648;2022-08-21T00:22:41;15.50;99.90
15386;DHT22;7791;47.246;9.648;2022-08-21T00:25:09;15.40;99.90
15386;DHT22;7791;47.246;9.648;2022-08-21T00:27:35;15.40;99.90
15386;DHT22;7791;47.246;9.648;2022-08-21T00:30:01;15.40;99.90
15386;DHT22;7791;47.246;9.648;2022-08-21T00:32:28;15.50;99.90
15386;DHT22;7791;47.246;9.648;2022-08-21T00:34:55;15.50;99.90
15386;DHT22;7791;47.246;9.648;2022-08-21T00:37:21;15.50;99.90
15386;DHT22;7791;47.246;9.648;2022-08-21T00:39:47;15.60;99.90
15386;DHT22;7791;47.246;9.648;2022-08-21T00:42:15;15.70;99.90
15386;DHT22;7791;47.246;9.648;2022-08-21T00:44:41;15.70;99.90
15386;DHT22;7791;47.246;9.648;2022-08-21T00:47:07;15.80;99.90
15386;DHT22;7791;47.246;9.648;2022-08-21T00:49:33;15.70;99.90
15386;DHT22;7791;47.246;9.648;2022-08-21T00:52:01;15.70;99.90
15386;DHT22;7791;47.246;9.648;2022-08-21T00:54:29;15.70;99.90
15386;DHT22;7791;47.246;9.648;2022-08-21T00:56:58;15.70;99.90
15386;DHT22;7791;47.246;9.648;2022-08-21T00:59:28;15.60;99.90
15386;DHT22;7791;47.246;9.648;2022-08-21T01:01:56;15.60;99.90
15386;DHT22;7791;47.246;9.648;2022-08-21T01:04:23;15.60;99.90
15386;DHT22;7791;47.246;9.648;2022-08-21T01:06:49;15.60;99.90
15386;DHT22;7791;47.246;9.648;2022-08-21T01:09:15;15.60;99.90
15386;DHT22;7791;47.246;9.648;2022-08-21T01:11:41;15.70;99.90
15386;DHT22;7791;47.246;9.648;2022-08-21T01:14:07;15.70;99.90
15386;DHT22;7791;47.246;9.648;2022-08-21T01:16:34;15.60;99.90
15386;DHT22;7791;47.246;9.648;2022-08-21T01:19:00;15.50;99.90
15386;DHT22;7791;47.246;9.648;2022-08-21T01:21:34;15.50;99.90
15386;DHT22;7791;47.246;9.648;2022-08-21T01:24:00;15.50;99.90
15386;DHT22;7791;47.246;9.648;2022-08-21T01:26:29;15.50;99.90
15386;DHT22;7791;47.246;9.648;2022-08-21T01:29:00;15.40;99.90
15386;DHT22;7791;47.246;9.648;2022-08-21T01:31:28;15.50;99.90
15386;DHT22;7791;47.246;9.648;2022-08-21T01:33:55;15.40;99.90
15386;DHT22;7791;47.246;9.648;2022-08-21T01:36:22;15.30;99.90
15386;DHT22;7791;47.246;9.648;2022-08-21T01:38:49;15.20;99.90
15386;DHT22;7791;47.246;9.648;2022-08-21T01:41:15;15.10;99.90
15386;DHT22;7791;47.246;9.648;2022-08-21T01:43:42;15.10;99.90
15386;DHT22;7791;47.246;9.648;2022-08-21T01:46:09;15.00;99.90
15386;DHT22;7791;47.246;9.648;2022-08-21T01:48:35;15.00;99.90
15386;DHT22;7791;47.246;9.648;2022-08-21T01:51:07;14.80;99.90
15386;DHT22;7791;47.246;9.648;2022-08-21T01:53:33;14.70;99.90
15386;DHT22;7791;47.246;9.648;2022-08-21T01:56:02;14.70;99.90
15386;DHT22;7791;47.246;9.648;2022-08-21T01:58:28;14.70;99.90
15386;DHT22;7791;47.246;9.648;2022-08-21T02:00:54;14.80;99.90
15386;DHT22;7791;47.246;9.648;2022-08-21T02:03:20;14.80;99.90
15386;DHT22;7791;47.246;9.648;2022-08-21T02:06:12;14.80;99.90
15386;DHT22;7791;47.246;9.648;2022-08-21T02:08:38;14.80;99.90
15386;DHT22;7791;47.246;9.648;2022-08-21T02:11:05;14.70;99.90
15386;DHT22;7791;47.246;9.648;2022-08-21T02:13:31;14.80;99.90
15386;DHT22;7791;47.246;9.648;2022-08-21T02:15:58;14.90;99.90
15386;DHT22;7791;47.246;9.648;2022-08-21T02:18:23;14.90;99.90
15386;DHT22;7791;47.246;9.648;2022-08-21T02:20:52;14.90;99.90
15386;DHT22;7791;47.246;9.648;2022-08-21T02:23:18;14.90;99.90
15386;DHT22;7791;47.246;9.648;2022-08-21T02:25:44;14.80;99.90
15386;DHT22;7791;47.246;9.648;2022-08-21T02:28:14;14.80;99.90
15386;DHT22;7791;47.246;9.648;2022-08-21T02:30:45;14.70;99.90
15386;DHT22;7791;47.246;9.648;2022-08-21T02:33:12;14.80;99.90
15386;DHT22;7791;47.246;9.648;2022-08-21T02:35:39;14.80;99.90
15386;DHT22;7791;47.246;9.648;2022-08-21T02:38:21;14.80;99.90
15386;DHT22;7791;47.246;9.648;2022-08-21T02:40:49;14.80;99.90
15386;DHT22;7791;47.246;9.648;2022-08-21T02:43:17;14.70;99.90
15386;DHT22;7791;47.246;9.648;2022-08-21T02:45:44;14.60;99.90
15386;DHT22;7791;47.246;9.648;2022-08-21T02:48:13;14.50;99.90
15386;DHT22;7791;47.246;9.648;2022-08-21T02:50:46;14.50;99.90
15386;DHT22;7791;47.246;9.648;2022-08-21T02:53:13;14.50;99.90
15386;DHT22;7791;47.246;9.648;2022-08-21T02:55:40;14.50;99.90
15386;DHT22;7791;47.246;9.648;2022-08-21T02:58:07;14.50;99.90
15386;DHT22;7791;47.246;9.648;2022-08-21T03:00:36;14.60;99.90
15386;DHT22;7791;47.246;9.648;2022-08-21T03:03:04;14.60;99.90
15386;DHT22;7791;47.246;9.648;2022-08-21T03:05:32;14.70;99.90
15386;DHT22;7791;47.246;9.648;2022-08-21T03:07:59;14.70;99.90
15386;DHT22;7791;47.246;9.648;2022-08-21T03:10:25;14.70;99.90
15386;DHT22;7791;47.246;9.648;2022-08-21T03:12:51;14.70;99.90
15386;DHT22;7791;47.246;9.648;2022-08-21T03:15:20;14.60;99.90
15386;DHT22;7791;47.246;9.648;2022-08-21T03:17:49;14.50;99.90
15386;DHT22;7791;47.246;9.648;2022-08-21T03:20:16;14.40;99.90
15386;DHT22;7791;47.246;9.648;2022-08-21T03:26:23;14.30;99.90
15386;DHT22;7791;47.246;9.648;2022-08-21T03:28:49;14.40;99.90
15386;DHT22;7791;47.246;9.648;2022-08-21T03:31:15;14.40;99.90
15386;DHT22;7791;47.246;9.648;2022-08-21T03:33:42;14.50;99.90
15386;DHT22;7791;47.246;9.648;2022-08-21T03:36:09;14.50;99.90
15386;DHT22;7791;47.246;9.648;2022-08-21T03:38:36;14.50;99.90
15386;DHT22;7791;47.246;9.648;2022-08-21T03:41:03;14.50;99.90
15386;DHT22;7791;47.246;9.648;2022-08-21T03:43:30;14.50;99.90
15386;DHT22;7791;47.246;9.648;2022-08-21T03:45:57;14.50;99.90
15386;DHT22;7791;47.246;9.648;2022-08-21T03:48:23;14.60;99.90
15386;DHT22;7791;47.246;9.648;2022-08-21T03:50:52;14.60;99.90
15386;DHT22;7791;47.246;9.648;2022-08-21T03:53:48;14.50;99.90
15386;DHT22;7791;47.246;9.648;2022-08-21T03:56:14;14.50;99.90
15386;DHT22;7791;47.246;9.648;2022-08-21T03:58:41;14.50;99.90
15386;DHT22;7791;47.246;9.648;2022-08-21T04:01:06;14.40;99.90
15386;DHT22;7791;47.246;9.648;2022-08-21T04:03:34;14.30;99.90
15386;DHT22;7791;47.246;9.648;2022-08-21T04:06:02;14.30;99.90
15386;DHT22;7791;47.246;9.648;2022-08-21T04:08:29;14.40;99.90
15386;DHT22;7791;47.246;9.648;2022-08-21T04:10:56;14.40;99.90
15386;DHT22;7791;47.246;9.648;2022-08-21T04:13:23;14.40;99.90
15386;DHT22;7791;47.246;9.648;2022-08-21T04:15:50;14.50;99.90
15386;DHT22;7791;47.246;9.648;2022-08-21T04:18:16;14.50;99.90
15386;DHT22;7791;47.246;9.648;2022-08-21T04:20:43;14.50;99.90
15386;DHT22;7791;47.246;9.648;2022-08-21T04:23:11;14.50;99.90
15386;DHT22;7791;47.246;9.648;2022-08-21T04:25:37;14.40;99.90
15386;DHT22;7791;47.246;9.648;2022-08-21T04:28:04;14.40;99.90
15386;DHT22;7791;47.246;9.648;2022-08-21T04:30:30;14.30;99.90
15386;DHT22;7791;47.246;9.648;2022-08-21T04:32:57;14.30;99.90
15386;DHT22;7791;47.246;9.648;2022-08-21T04:35:24;14.30;99.90
15386;DHT22;7791;47.246;9.648;2022-08-21T04:37:50;14.20;99.90
15386;DHT22;7791;47.246;9.648;2022-08-21T04:40:19;14.20;99.90
15386;DHT22;7791;47.246;9.648;2022-08-21T04:42:48;14.20;99.90
15386;DHT22;7791;47.246;9.648;2022-08-21T04:45:19;14.20;99.90
15386;DHT22;7791;47.246;9.648;2022-08-21T04:47:45;14.20;99.90
15386;DHT22;7791;47.246;9.648;2022-08-21T04:50:12;14.30;99.90
15386;DHT22;7791;47.246;9.648;2022-08-21T04:52:37;14.40;99.90
15386;DHT22;7791;47.246;9.648;2022-08-21T04:58:07;14.40;99.90
15386;DHT22;7791;47.246;9.648;2022-08-21T05:00:34;14.40;99.90
15386;DHT22;7791;47.246;9.648;2022-08-21T05:03:00;14.40;99.90
15386;DHT22;7791;47.246;9.648;2022-08-21T05:05:28;14.50;99.90
15386;DHT22;7791;47.246;9.648;2022-08-21T05:07:54;14.50;99.90
15386;DHT22;7791;47.246;9.648;2022-08-21T05:10:23;14.60;99.90
15386;DHT22;7791;47.246;9.648;2022-08-21T05:12:50;14.60;99.90
15386;DHT22;7791;47.246;9.648;2022-08-21T05:15:17;14.60;99.90
15386;DHT22;7791;47.246;9.648;2022-08-21T05:17:44;14.60;99.90
15386;DHT22;7791;47.246;9.648;2022-08-21T05:20:10;14.70;99.90
15386;DHT22;7791;47.246;9.648;2022-08-21T05:22:37;14.70;99.90
15386;DHT22;7791;47.246;9.648;2022-08-21T05:25:04;14.70;99.90
15386;DHT22;7791;47.246;9.648;2022-08-21T05:27:30;14.60;99.90
15386;DHT22;7791;47.246;9.648;2022-08-21T05:29:56;14.70;99.90
15386;DHT22;7791;47.246;9.648;2022-08-21T05:32:23;14.80;99.90
15386;DHT22;7791;47.246;9.648;2022-08-21T05:34:49;14.80;99.90
15386;DHT22;7791;47.246;9.648;2022-08-21T05:37:15;14.80;99.90
15386;DHT22;7791;47.246;9.648;2022-08-21T05:39:42;14.80;99.90
15386;DHT22;7791;47.246;9.648;2022-08-21T05:42:07;14.80;99.90
15386;DHT22;7791;47.246;9.648;2022-08-21T05:44:34;14.80;99.90
15386;DHT22;7791;47.246;9.648;2022-08-21T05:47:04;14.80;99.90
15386;DHT22;7791;47.246;9.648;2022-08-21T05:49:31;14.80;99.90
15386;DHT22;7791;47.246;9.648;2022-08-21T05:51:57;14.80;99.90
15386;DHT22;7791;47.246;9.648;2022-08-21T05:54:23;14.90;99.90
15386;DHT22;7791;47.246;9.648;2022-08-21T06:03:03;14.90;99.90
15386;DHT22;7791;47.246;9.648;2022-08-21T06:05:30;15.00;99.90
15386;DHT22;7791;47.246;9.648;2022-08-21T06:07:56;15.00;99.90
15386;DHT22;7791;47.246;9.648;2022-08-21T06:13:25;15.00;99.90
15386;DHT22;7791;47.246;9.648;2022-08-21T06:16:01;14.90;99.90
15386;DHT22;7791;47.246;9.648;2022-08-21T06:18:28;15.20;99.90
15386;DHT22;7791;47.246;9.648;2022-08-21T06:20:55;16.30;99.90
15386;DHT22;7791;47.246;9.648;2022-08-21T06:23:20;17.70;99.90
15386;DHT22;7791;47.246;9.648;2022-08-21T06:26:07;18.90;99.90
15386;DHT22;7791;47.246;9.648;2022-08-21T06:28:34;20.50;99.90
15386;DHT22;7791;47.246;9.648;2022-08-21T06:31:00;21.60;99.90
15386;DHT22;7791;47.246;9.648;2022-08-21T06:33:26;22.40;99.90
15386;DHT22;7791;47.246;9.648;2022-08-21T06:35:52;22.80;99.90
15386;DHT22;7791;47.246;9.648;2022-08-21T06:38:19;22.70;99.90
15386;DHT22;7791;47.246;9.648;2022-08-21T06:40:51;23.30;99.90
15386;DHT22;7791;47.246;9.648;2022-08-21T06:43:17;24.20;99.90
15386;DHT22;7791;47.246;9.648;2022-08-21T06:45:43;24.80;99.90
15386;DHT22;7791;47.246;9.648;2022-08-21T06:48:10;25.40;99.90
15386;DHT22;7791;47.246;9.648;2022-08-21T06:50:36;25.70;99.90
15386;DHT22;7791;47.246;9.648;2022-08-21T06:53:04;26.00;99.90
15386;DHT22;7791;47.246;9.648;2022-08-21T06:55:32;26.00;99.90
15386;DHT22;7791;47.246;9.648;2022-08-21T06:57:59;25.90;99.90
15386;DHT22;7791;47.246;9.648;2022-08-21T07:00:25;26.10;99.90
15386;DHT22;7791;47.246;9.648;2022-08-21T07:02:51;26.50;99.90
15386;DHT22;7791;47.246;9.648;2022-08-21T07:05:17;26.70;99.90
15386;DHT22;7791;47.246;9.648;2022-08-21T07:07:43;27.00;99.90
15386;DHT22;7791;47.246;9.648;2022-08-21T07:10:09;27.80;99.90
15386;DHT22;7791;47.246;9.648;2022-08-21T07:12:36;28.10;99.90
15386;DHT22;7791;47.246;9.648;2022-08-21T07:15:04;28.40;99.90
15386;DHT22;7791;47.246;9.648;2022-08-21T07:17:31;28.70;99.90
15386;DHT22;7791;47.246;9.648;2022-08-21T07:19:57;28.80;99.90
15386;DHT22;7791;47.246;9.648;2022-08-21T07:22:22;28.50;99.90
15386;DHT22;7791;47.246;9.648;2022-08-21T07:24:48;28.80;99.90
15386;DHT22;7791;47.246;9.648;2022-08-21T07:27:14;28.80;99.90
15386;DHT22;7791;47.246;9.648;2022-08-21T07:29:41;29.10;99.90
15386;DHT22;7791;47.246;9.648;2022-08-21T07:32:07;29.90;99.90
15386;DHT22;7791;47.246;9.648;2022-08-21T07:34:33;30.50;99.90
15386;DHT22;7791;47.246;9.648;2022-08-21T07:36:59;30.10;99.90
15386;DHT22;7791;47.246;9.648;2022-08-21T07:39:25;29.80;99.90
15386;DHT22;7791;47.246;9.648;2022-08-21T07:41:52;29.60;99.80
15386;DHT22;7791;47.246;9.648;2022-08-21T07:44:18;29.70;99.90
15386;DHT22;7791;47.246;9.648;2022-08-21T07:46:45;30.00;99.90
15386;DHT22;7791;47.246;9.648;2022-08-21T07:49:11;29.90;99.90
15386;DHT22;7791;47.246;9.648;2022-08-21T07:51:37;29.60;99.90
15386;DHT22;7791;47.246;9.648;2022-08-21T07:54:03;29.10;99.90
15386;DHT22;7791;47.246;9.648;2022-08-21T07:56:31;29.10;99.90
15386;DHT22;7791;47.246;9.648;2022-08-21T07:58:57;29.10;99.90
15386;DHT22;7791;47.246;9.648;2022-08-21T08:01:23;29.50;99.40
15386;DHT22;7791;47.246;9.648;2022-08-21T08:03:51;29.80;99.10
15386;DHT22;7791;47.246;9.648;2022-08-21T08:06:18;30.40;98.30
15386;DHT22;7791;47.246;9.648;2022-08-21T08:08:44;30.80;98.40
15386;DHT22;7791;47.246;9.648;2022-08-21T08:11:11;31.10;97.00
15386;DHT22;7791;47.246;9.648;2022-08-21T08:13:43;30.80;96.40
15386;DHT22;7791;47.246;9.648;2022-08-21T08:16:09;31.20;96.60
15386;DHT22;7791;47.246;9.648;2022-08-21T08:18:35;29.60;97.60
15386;DHT22;7791;47.246;9.648;2022-08-21T08:21:03;28.40;97.50
15386;DHT22;7791;47.246;9.648;2022-08-21T08:23:28;29.80;98.00
15386;DHT22;7791;47.246;9.648;2022-08-21T08:25:54;31.10;96.20
15386;DHT22;7791;47.246;9.648;2022-08-21T08:28:20;31.70;94.80
15386;DHT22;7791;47.246;9.648;2022-08-21T08:30:46;31.70;94.50
15386;DHT22;7791;47.246;9.648;2022-08-21T08:33:12;32.00;94.30
15386;DHT22;7791;47.246;9.648;2022-08-21T08:35:38;32.20;94.60
15386;DHT22;7791;47.246;9.648;2022-08-21T08:38:05;32.20;94.00
15386;DHT22;7791;47.246;9.648;2022-08-21T08:40:37;31.80;93.70
15386;DHT22;7791;47.246;9.648;2022-08-21T08:43:03;31.30;94.70
15386;DHT22;7791;47.246;9.648;2022-08-21T08:45:32;31.20;95.40
15386;DHT22;7791;47.246;9.648;2022-08-21T08:48:03;30.80;94.60
15386;DHT22;7791;47.246;9.648;2022-08-21T08:50:39;30.80;94.70
15386;DHT22;7791;47.246;9.648;2022-08-21T08:53:11;30.40;94.20
15386;DHT22;7791;47.246;9.648;2022-08-21T08:55:39;29.10;97.50
15386;DHT22;7791;47.246;9.648;2022-08-21T08:58:07;29.00;98.60
15386;DHT22;7791;47.246;9.648;2022-08-21T09:00:34;28.50;97.40
15386;DHT22;7791;47.246;9.648;2022-08-21T09:03:02;28.00;97.30
15386;DHT22;7791;47.246;9.648;2022-08-21T09:05:30;27.70;97.80
15386;DHT22;7791;47.246;9.648;2022-08-21T09:08:14;27.90;97.60
15386;DHT22;7791;47.246;9.648;2022-08-21T09:10:48;27.60;97.70
15386;DHT22;7791;47.246;9.648;2022-08-21T09:13:21;27.70;97.90
15386;DHT22;7791;47.246;9.648;2022-08-21T09:15:56;27.80;97.30
15386;DHT22;7791;47.246;9.648;2022-08-21T09:18:34;27.70;96.90
15386;DHT22;7791;47.246;9.648;2022-08-21T09:21:11;27.70;98.60
15386;DHT22;7791;47.246;9.648;2022-08-21T09:23:50;28.10;97.10
15386;DHT22;7791;47.246;9.648;2022-08-21T09:26:23;28.10;96.90
15386;DHT22;7791;47.246;9.648;2022-08-21T09:28:52;28.30;97.40
15386;DHT22;7791;47.246;9.648;2022-08-21T09:31:23;27.60;97.50
15386;DHT22;7791;47.246;9.648;2022-08-21T09:33:49;27.40;96.90
15386;DHT22;7791;47.246;9.648;2022-08-21T09:36:25;27.60;97.60
15386;DHT22;7791;47.246;9.648;2022-08-21T09:38:55;27.90;96.60
15386;DHT22;7791;47.246;9.648;2022-08-21T09:41:28;28.00;97.20
15386;DHT22;7791;47.246;9.648;2022-08-21T09:43:55;28.10;97.70
15386;DHT22;7791;47.246;9.648;2022-08-21T09:46:22;27.70;99.70
15386;DHT22;7791;47.246;9.648;2022-08-21T09:48:50;28.10;97.50
15386;DHT22;7791;47.246;9.648;2022-08-21T09:51:20;27.70;98.20
15386;DHT22;7791;47.246;9.648;2022-08-21T09:53:50;27.60;98.20
15386;DHT22;7791;47.246;9.648;2022-08-21T09:56:29;28.50;97.60
15386;DHT22;7791;47.246;9.648;2022-08-21T09:58:56;28.60;96.40
15386;DHT22;7791;47.246;9.648;2022-08-21T10:01:24;28.10;97.50
15386;DHT22;7791;47.246;9.648;2022-08-21T10:04:02;28.50;97.90
15386;DHT22;7791;47.246;9.648;2022-08-21T10:06:29;28.10;97.10
15386;DHT22;7791;47.246;9.648;2022-08-21T10:09:04;28.60;96.80
15386;DHT22;7791;47.246;9.648;2022-08-21T10:11:32;29.30;95.90
15386;DHT22;7791;47.246;9.648;2022-08-21T10:14:05;28.60;97.50
15386;DHT22;7791;47.246;9.648;2022-08-21T10:16:40;27.90;98.90
15386;DHT22;7791;47.246;9.648;2022-08-21T10:19:16;28.70;98.60
15386;DHT22;7791;47.246;9.648;2022-08-21T10:21:58;28.10;98.60
15386;DHT22;7791;47.246;9.648;2022-08-21T10:24:35;27.60;99.90
15386;DHT22;7791;47.246;9.648;2022-08-21T10:27:14;27.40;98.80
15386;DHT22;7791;47.246;9.648;2022-08-21T10:29:49;27.30;99.90
15386;DHT22;7791;47.246;9.648;2022-08-21T10:35:12;28.60;98.60
15386;DHT22;7791;47.246;9.648;2022-08-21T10:37:49;28.90;97.00
15386;DHT22;7791;47.246;9.648;2022-08-21T10:40:24;28.90;97.70
15386;DHT22;7791;47.246;9.648;2022-08-21T10:43:05;29.40;97.20
15386;DHT22;7791;47.246;9.648;2022-08-21T10:45:48;28.70;97.50
15386;DHT22;7791;47.246;9.648;2022-08-21T10:48:23;28.60;98.10
15386;DHT22;7791;47.246;9.648;2022-08-21T10:50:53;28.70;97.00
15386;DHT22;7791;47.246;9.648;2022-08-21T10:53:36;28.90;96.60
15386;DHT22;7791;47.246;9.648;2022-08-21T10:56:15;28.80;97.60
15386;DHT22;7791;47.246;9.648;2022-08-21T10:58:49;29.20;97.60
15386;DHT22;7791;47.246;9.648;2022-08-21T11:01:20;28.80;98.90
15386;DHT22;7791;47.246;9.648;2022-08-21T11:03:53;28.80;97.90
15386;DHT22;7791;47.246;9.648;2022-08-21T11:06:23;28.90;96.70
15386;DHT22;7791;47.246;9.648;2022-08-21T11:08:52;29.40;98.20
15386;DHT22;7791;47.246;9.648;2022-08-21T11:11:22;29.80;95.30
15386;DHT22;7791;47.246;9.648;2022-08-21T11:13:54;29.30;97.40
15386;DHT22;7791;47.246;9.648;2022-08-21T11:16:33;28.80;96.40
15386;DHT22;7791;47.246;9.648;2022-08-21T11:19:06;28.30;98.70
15386;DHT22;7791;47.246;9.648;2022-08-21T11:21:41;28.00;97.20
15386;DHT22;7791;47.246;9.648;2022-08-21T11:24:21;27.40;99.00
15386;DHT22;7791;47.246;9.648;2022-08-21T11:26:54;28.00;99.20
15386;DHT22;7791;47.246;9.648;2022-08-21T11:29:28;28.20;98.40
15386;DHT22;7791;47.246;9.648;2022-08-21T11:32:09;28.50;97.70
15386;DHT22;7791;47.246;9.648;2022-08-21T11:34:47;27.80;99.10
15386;DHT22;7791;47.246;9.648;2022-08-21T11:37:21;27.70;99.90
15386;DHT22;7791;47.246;9.648;2022-08-21T11:39:56;27.80;99.40
15386;DHT22;7791;47.246;9.648;2022-08-21T11:42:35;27.90;99.90
15386;DHT22;7791;47.246;9.648;2022-08-21T11:45:17;28.00;99.90
15386;DHT22;7791;47.246;9.648;2022-08-21T11:47:53;28.60;99.90
15386;DHT22;7791;47.246;9.648;2022-08-21T11:50:23;28.40;99.70
15386;DHT22;7791;47.246;9.648;2022-08-21T11:52:55;28.40;99.30
15386;DHT22;7791;47.246;9.648;2022-08-21T11:55:29;28.70;99.50
15386;DHT22;7791;47.246;9.648;2022-08-21T11:58:01;28.70;98.60
15386;DHT22;7791;47.246;9.648;2022-08-21T12:00:32;29.10;98.50
15386;DHT22;7791;47.246;9.648;2022-08-21T12:03:33;29.10;98.10
15386;DHT22;7791;47.246;9.648;2022-08-21T12:06:04;28.70;97.90
15386;DHT22;7791;47.246;9.648;2022-08-21T12:08:34;28.90;98.60
15386;DHT22;7791;47.246;9.648;2022-08-21T12:11:05;29.30;97.70
15386;DHT22;7791;47.246;9.648;2022-08-21T12:13:33;28.60;98.00
15386;DHT22;7791;47.246;9.648;2022-08-21T12:16:28;28.20;99.00
15386;DHT22;7791;47.246;9.648;2022-08-21T12:19:14;29.10;98.00
15386;DHT22;7791;47.246;9.648;2022-08-21T12:21:57;29.10;98.30
15386;DHT22;7791;47.246;9.648;2022-08-21T12:24:33;28.70;97.70
15386;DHT22;7791;47.246;9.648;2022-08-21T12:27:18;28.20;97.90
15386;DHT22;7791;47.246;9.648;2022-08-21T12:29:46;28.30;99.00
15386;DHT22;7791;47.246;9.648;2022-08-21T12:32:25;28.60;98.50
15386;DHT22;7791;47.246;9.648;2022-08-21T12:34:57;28.90;98.10
15386;DHT22;7791;47.246;9.648;2022-08-21T12:37:34;28.90;97.80
15386;DHT22;7791;47.246;9.648;2022-08-21T12:40:04;28.80;97.10
15386;DHT22;7791;47.246;9.648;2022-08-21T12:42:34;28.90;97.00
15386;DHT22;7791;47.246;9.648;2022-08-21T12:45:06;29.10;96.70
15386;DHT22;7791;47.246;9.648;2022-08-21T12:47:47;29.00;95.70
15386;DHT22;7791;47.246;9.648;2022-08-21T12:50:19;29.00;95.90
15386;DHT22;7791;47.246;9.648;2022-08-21T12:52:51;28.90;94.90
15386;DHT22;7791;47.246;9.648;2022-08-21T12:55:26;28.70;96.20
15386;DHT22;7791;47.246;9.648;2022-08-21T12:57:52;28.90;95.40
15386;DHT22;7791;47.246;9.648;2022-08-21T13:00:23;29.40;95.20
15386;DHT22;7791;47.246;9.648;2022-08-21T13:02:51;29.60;94.30
15386;DHT22;7791;47.246;9.648;2022-08-21T13:05:41;29.20;95.70
15386;DHT22;7791;47.246;9.648;2022-08-21T13:08:11;29.30;93.50
15386;DHT22;7791;47.246;9.648;2022-08-21T13:10:40;29.20;95.70
15386;DHT22;7791;47.246;9.648;2022-08-21T13:13:09;29.10;94.30
15386;DHT22;7791;47.246;9.648;2022-08-21T13:15:39;28.70;94.50
15386;DHT22;7791;47.246;9.648;2022-08-21T13:18:07;28.90;95.50
15386;DHT22;7791;47.246;9.648;2022-08-21T13:21:07;28.70;94.40
15386;DHT22;7791;47.246;9.648;2022-08-21T13:23:34;28.20;96.00
15386;DHT22;7791;47.246;9.648;2022-08-21T13:25:59;28.40;95.10
15386;DHT22;7791;47.246;9.648;2022-08-21T13:28:33;28.70;93.90
15386;DHT22;7791;47.246;9.648;2022-08-21T13:31:01;28.50;92.90
15386;DHT22;7791;47.246;9.648;2022-08-21T13:33:30;28.30;94.00
15386;DHT22;7791;47.246;9.648;2022-08-21T13:36:01;28.00;95.30
15386;DHT22;7791;47.246;9.648;2022-08-21T13:38:34;27.80;94.30
15386;DHT22;7791;47.246;9.648;2022-08-21T13:41:05;27.60;95.20
15386;DHT22;7791;47.246;9.648;2022-08-21T13:43:34;27.70;96.30
15386;DHT22;7791;47.246;9.648;2022-08-21T13:46:01;28.50;95.10
15386;DHT22;7791;47.246;9.648;2022-08-21T13:48:33;28.30;94.50
15386;DHT22;7791;47.246;9.648;2022-08-21T13:50:59;28.20;94.90
15386;DHT22;7791;47.246;9.648;2022-08-21T13:53:29;28.10;94.60
15386;DHT22;7791;47.246;9.648;2022-08-21T13:55:57;28.10;94.80
15386;DHT22;7791;47.246;9.648;2022-08-21T13:58:28;28.20;93.90
15386;DHT22;7791;47.246;9.648;2022-08-21T14:00:55;27.80;94.90
15386;DHT22;7791;47.246;9.648;2022-08-21T14:03:35;27.70;95.00
15386;DHT22;7791;47.246;9.648;2022-08-21T14:06:10;27.60;94.70
15386;DHT22;7791;47.246;9.648;2022-08-21T14:08:38;27.60;95.10
15386;DHT22;7791;47.246;9.648;2022-08-21T14:11:05;27.40;95.00
15386;DHT22;7791;47.246;9.648;2022-08-21T14:13:36;27.40;95.20
15386;DHT22;7791;47.246;9.648;2022-08-21T14:16:14;27.60;96.20
15386;DHT22;7791;47.246;9.648;2022-08-21T14:18:51;27.50;95.30
15386;DHT22;7791;47.246;9.648;2022-08-21T14:21:29;27.20;94.80
15386;DHT22;7791;47.246;9.648;2022-08-21T14:24:09;27.00;95.20
15386;DHT22;7791;47.246;9.648;2022-08-21T14:26:44;26.90;95.70
15386;DHT22;7791;47.246;9.648;2022-08-21T14:29:14;27.10;95.50
15386;DHT22;7791;47.246;9.648;2022-08-21T14:31:41;27.20;94.70
15386;DHT22;7791;47.246;9.648;2022-08-21T14:34:12;27.00;94.80
15386;DHT22;7791;47.246;9.648;2022-08-21T14:36:38;27.10;94.70
15386;DHT22;7791;47.246;9.648;2022-08-21T14:39:04;27.30;94.70
15386;DHT22;7791;47.246;9.648;2022-08-21T14:41:30;27.40;93.90
15386;DHT22;7791;47.246;9.648;2022-08-21T14:43:56;27.20;94.20
15386;DHT22;7791;47.246;9.648;2022-08-21T14:46:25;26.90;94.60
15386;DHT22;7791;47.246;9.648;2022-08-21T14:48:53;27.00;94.70
15386;DHT22;7791;47.246;9.648;2022-08-21T14:51:20;27.10;94.50
15386;DHT22;7791;47.246;9.648;2022-08-21T14:53:47;27.20;94.30
15386;DHT22;7791;47.246;9.648;2022-08-21T14:56:14;27.20;93.50
15386;DHT22;7791;47.246;9.648;2022-08-21T14:58:43;27.10;93.50
15386;DHT22;7791;47.246;9.648;2022-08-21T15:01:11;27.10;94.70
15386;DHT22;7791;47.246;9.648;2022-08-21T15:03:38;27.40;92.50
15386;DHT22;7791;47.246;9.648;2022-08-21T15:06:07;27.30;93.20
15386;DHT22;7791;47.246;9.648;2022-08-21T15:08:35;27.10;92.00
15386;DHT22;7791;47.246;9.648;2022-08-21T15:11:02;26.70;91.70
15386;DHT22;7791;47.246;9.648;2022-08-21T15:13:29;26.40;91.50
15386;DHT22;7791;47.246;9.648;2022-08-21T15:15:55;26.30;89.30
15386;DHT22;7791;47.246;9.648;2022-08-21T15:18:24;26.20;90.80
15386;DHT22;7791;47.246;9.648;2022-08-21T15:20:50;26.30;92.10
15386;DHT22;7791;47.246;9.648;2022-08-21T15:23:27;26.50;91.50
15386;DHT22;7791;47.246;9.648;2022-08-21T15:25:54;26.50;91.80
15386;DHT22;7791;47.246;9.648;2022-08-21T15:28:21;26.70;91.90
15386;DHT22;7791;47.246;9.648;2022-08-21T15:30:47;26.60;91.20
15386;DHT22;7791;47.246;9.648;2022-08-21T15:33:13;26.30;90.60
15386;DHT22;7791;47.246;9.648;2022-08-21T15:35:40;26.30;90.20
15386;DHT22;7791;47.246;9.648;2022-08-21T15:38:07;26.20;90.30
15386;DHT22;7791;47.246;9.648;2022-08-21T15:40:35;26.20;90.80
15386;DHT22;7791;47.246;9.648;2022-08-21T15:43:05;25.90;91.20
15386;DHT22;7791;47.246;9.648;2022-08-21T15:45:34;25.40;91.40
15386;DHT22;7791;47.246;9.648;2022-08-21T15:48:00;25.20;92.60
15386;DHT22;7791;47.246;9.648;2022-08-21T15:50:28;25.00;92.40
15386;DHT22;7791;47.246;9.648;2022-08-21T15:52:54;24.90;93.00
15386;DHT22;7791;47.246;9.648;2022-08-21T15:55:20;24.80;92.70
15386;DHT22;7791;47.246;9.648;2022-08-21T15:57:49;24.60;92.20
15386;DHT22;7791;47.246;9.648;2022-08-21T16:00:21;24.60;93.10
15386;DHT22;7791;47.246;9.648;2022-08-21T16:02:50;24.50;92.20
15386;DHT22;7791;47.246;9.648;2022-08-21T16:05:16;24.50;92.60
15386;DHT22;7791;47.246;9.648;2022-08-21T16:07:43;24.50;92.70
15386;DHT22;7791;47.246;9.648;2022-08-21T16:10:12;24.40;92.10
15386;DHT22;7791;47.246;9.648;2022-08-21T16:12:41;24.40;92.50
15386;DHT22;7791;47.246;9.648;2022-08-21T16:15:10;24.50;93.50
15386;DHT22;7791;47.246;9.648;2022-08-21T16:17:40;24.40;93.10